createdAt,value
2022-10-22T00:00:52.803Z,6.40
2022-10-22T00:03:19.314Z,7.75
2022-10-22T00:05:45.767Z,6.55
2022-10-22T00:08:12.281Z,10.60
2022-10-22T00:10:38.863Z,6.05
2022-10-22T00:13:05.340Z,6.88
2022-10-22T00:15:31.919Z,9.88
2022-10-22T00:17:58.371Z,6.70
2022-10-22T00:20:24.819Z,9.73
2022-10-22T00:25:18.652Z,6.55
2022-10-22T00:27:45.082Z,8.68
2022-10-22T00:30:12.084Z,8.05
2022-10-22T00:32:39.158Z,8.52
2022-10-22T00:35:07.222Z,6.90
2022-10-22T00:37:33.701Z,7.03
2022-10-22T00:40:00.271Z,7.78
2022-10-22T00:42:29.304Z,10.25
2022-10-22T00:45:10.827Z,11.68
2022-10-22T00:47:57.480Z,10.13
2022-10-22T00:50:29.391Z,8.48
2022-10-22T00:52:57.352Z,8.73
2022-10-22T00:55:26.380Z,9.27
2022-10-22T00:57:55.601Z,7.20
2022-10-22T01:00:22.656Z,10.98
2022-10-22T01:02:51.154Z,8.45
2022-10-22T01:05:18.179Z,8.90
2022-10-22T01:07:48.677Z,8.57
2022-10-22T01:10:30.784Z,8.35
2022-10-22T01:13:11.099Z,8.00
2022-10-22T01:15:40.438Z,9.30
2022-10-22T01:18:15.289Z,9.32
2022-10-22T01:21:13.982Z,8.68
2022-10-22T01:24:01.395Z,11.70
2022-10-22T01:26:36.688Z,13.38
2022-10-22T01:29:17.326Z,11.07
2022-10-22T01:31:54.420Z,7.68
2022-10-22T01:34:23.589Z,9.63
2022-10-22T01:36:52.200Z,9.27
2022-10-22T01:39:20.394Z,11.73
2022-10-22T01:41:46.959Z,8.75
2022-10-22T01:44:48.736Z,9.70
2022-10-22T01:47:32.908Z,8.47
2022-10-22T01:50:19.538Z,8.15
2022-10-22T01:53:06.311Z,8.40
2022-10-22T01:56:00.233Z,7.85
2022-10-22T01:58:53.707Z,13.48
2022-10-22T02:01:45.861Z,9.18
2022-10-22T02:04:35.613Z,8.93
2022-10-22T02:07:06.153Z,7.38
2022-10-22T02:09:34.064Z,12.73
2022-10-22T02:12:03.179Z,10.80
2022-10-22T02:14:31.443Z,14.88
2022-10-22T02:16:59.320Z,11.80
2022-10-22T02:19:30.626Z,9.73
2022-10-22T02:21:57.089Z,13.73
2022-10-22T02:24:24.166Z,8.63
2022-10-22T02:27:12.195Z,10.20
2022-10-22T02:29:42.954Z,10.25
2022-10-22T02:32:15.179Z,12.00
2022-10-22T02:34:41.889Z,8.95
2022-10-22T02:37:09.228Z,8.63
2022-10-22T02:39:36.507Z,7.72
2022-10-22T02:42:03.411Z,7.28
2022-10-22T02:44:29.925Z,8.52
2022-10-22T02:46:56.695Z,11.20
2022-10-22T02:49:23.175Z,7.78
2022-10-22T02:51:49.667Z,8.90
2022-10-22T02:54:16.155Z,8.95
2022-10-22T02:56:42.674Z,8.93
2022-10-22T02:59:09.167Z,9.27
2022-10-22T03:01:35.644Z,9.13
2022-10-22T03:04:02.243Z,8.30
2022-10-22T03:06:28.772Z,7.18
2022-10-22T03:08:55.775Z,10.98
2022-10-22T03:11:22.250Z,8.25
2022-10-22T03:13:48.719Z,10.23
2022-10-22T03:16:15.160Z,7.57
2022-10-22T03:18:41.603Z,10.10
2022-10-22T03:21:18.015Z,10.35
2022-10-22T03:23:44.543Z,9.57
2022-10-22T03:26:13.578Z,9.00
2022-10-22T03:28:41.199Z,7.63
2022-10-22T03:31:07.725Z,10.13
2022-10-22T03:33:34.227Z,7.57
2022-10-22T03:36:00.928Z,11.25
2022-10-22T03:38:27.492Z,9.15
2022-10-22T03:40:54.003Z,10.55
2022-10-22T03:43:20.496Z,7.93
2022-10-22T03:45:47.165Z,8.52
2022-10-22T03:48:13.776Z,8.48
2022-10-22T03:50:40.259Z,8.75
2022-10-22T03:53:08.536Z,8.52
2022-10-22T03:55:35.010Z,8.20
2022-10-22T03:58:02.126Z,10.52
2022-10-22T04:00:28.576Z,7.65
2022-10-22T04:02:55.027Z,9.23
2022-10-22T04:05:21.476Z,10.00
2022-10-22T04:07:47.921Z,8.15
2022-10-22T04:10:14.477Z,15.25
2022-10-22T04:12:40.941Z,11.45
2022-10-22T04:15:08.065Z,10.73
2022-10-22T04:17:37.956Z,11.90
2022-10-22T04:20:05.310Z,10.43
2022-10-22T04:22:34.497Z,12.38
2022-10-22T04:25:01.050Z,9.40
2022-10-22T04:27:31.925Z,10.93
2022-10-22T04:29:58.712Z,16.00
2022-10-22T04:32:26.602Z,13.73
2022-10-22T04:34:53.059Z,10.80
2022-10-22T04:37:19.961Z,13.07
2022-10-22T04:39:46.432Z,11.50
2022-10-22T04:42:13.006Z,12.35
2022-10-22T04:44:39.472Z,11.73
2022-10-22T04:47:05.914Z,16.25
2022-10-22T04:49:32.390Z,11.40
2022-10-22T04:51:58.859Z,14.48
2022-10-22T04:54:27.804Z,11.65
2022-10-22T04:56:58.418Z,14.27
2022-10-22T04:59:24.902Z,12.77
2022-10-22T05:01:51.420Z,13.07
2022-10-22T05:04:19.596Z,13.68
2022-10-22T05:06:46.502Z,13.48
2022-10-22T05:09:19.488Z,12.15
2022-10-22T05:11:49.184Z,11.63
2022-10-22T05:14:21.219Z,11.32
2022-10-22T05:16:49.022Z,11.90
2022-10-22T05:19:20.765Z,12.80
2022-10-22T05:21:47.244Z,14.48
2022-10-22T05:24:13.742Z,12.63
2022-10-22T05:26:40.274Z,10.88
2022-10-22T05:29:06.837Z,13.40
2022-10-22T05:31:33.622Z,11.23
2022-10-22T05:34:00.078Z,12.50
2022-10-22T05:36:26.899Z,10.57
2022-10-22T05:38:53.755Z,10.18
2022-10-22T05:41:24.693Z,11.48
2022-10-22T05:43:53.952Z,12.88
2022-10-22T05:46:23.016Z,12.70
2022-10-22T05:48:55.587Z,9.65
2022-10-22T05:51:22.627Z,14.32
2022-10-22T05:53:58.743Z,9.95
2022-10-22T05:56:26.813Z,10.23
2022-10-22T05:58:53.673Z,9.82
2022-10-22T06:01:25.775Z,14.45
2022-10-22T06:03:57.085Z,12.43
2022-10-22T06:06:37.448Z,12.30
2022-10-22T06:09:11.207Z,11.82
2022-10-22T06:11:37.799Z,9.38
2022-10-22T06:14:04.651Z,12.43
2022-10-22T06:16:31.817Z,10.95
2022-10-22T06:19:02.047Z,6.97
2022-10-22T06:21:29.128Z,7.15
2022-10-22T06:23:56.851Z,7.85
2022-10-22T06:26:23.355Z,10.77
2022-10-22T06:28:49.904Z,8.95
2022-10-22T06:31:16.408Z,10.70
2022-10-22T06:33:43.371Z,11.20
2022-10-22T06:36:12.462Z,12.73
2022-10-22T06:38:39.885Z,11.43
2022-10-22T06:41:13.896Z,10.27
2022-10-22T06:43:41.350Z,10.27
2022-10-22T06:46:09.820Z,8.70
2022-10-22T06:48:37.854Z,7.95
2022-10-22T06:51:07.134Z,8.65
2022-10-22T06:53:34.783Z,8.23
2022-10-22T06:56:09.291Z,8.98
2022-10-22T06:58:36.124Z,8.35
2022-10-22T07:01:08.768Z,13.02
2022-10-22T07:03:36.204Z,10.32
2022-10-22T07:06:05.387Z,7.35
2022-10-22T07:08:32.888Z,9.48
2022-10-22T07:11:12.565Z,7.47
2022-10-22T07:13:39.054Z,7.47
2022-10-22T07:16:07.075Z,10.80
2022-10-22T07:18:34.631Z,8.98
2022-10-22T07:21:01.475Z,10.90
2022-10-22T07:23:28.625Z,8.95
2022-10-22T07:28:23.059Z,8.23
2022-10-22T07:30:49.693Z,8.80
2022-10-22T07:33:16.253Z,8.25
2022-10-22T07:35:43.208Z,9.98
2022-10-22T07:38:09.690Z,9.10
2022-10-22T07:40:36.504Z,8.82
2022-10-22T07:43:03.371Z,12.00
2022-10-22T07:45:29.898Z,6.82
2022-10-22T07:47:56.398Z,9.85
2022-10-22T07:50:23.061Z,8.65
2022-10-22T07:52:49.581Z,9.38
2022-10-22T07:55:16.177Z,14.18
2022-10-22T07:57:42.671Z,7.88
2022-10-22T08:00:10.044Z,8.88
2022-10-22T08:02:39.781Z,7.10
2022-10-22T08:05:07.053Z,8.27
2022-10-22T08:07:33.577Z,12.02
2022-10-22T08:10:00.043Z,10.30
2022-10-22T08:12:26.680Z,10.15
2022-10-22T08:14:53.311Z,10.35
2022-10-22T08:17:19.760Z,7.88
2022-10-22T08:19:46.221Z,7.57
2022-10-22T08:22:12.678Z,6.15
2022-10-22T08:24:39.270Z,6.07
2022-10-22T08:27:05.754Z,7.47
2022-10-22T08:29:32.192Z,8.32
2022-10-22T08:31:58.693Z,9.35
2022-10-22T08:34:25.203Z,7.60
2022-10-22T08:36:51.645Z,8.38
2022-10-22T08:39:18.094Z,7.85
2022-10-22T08:42:02.186Z,13.82
2022-10-22T08:45:01.409Z,9.18
2022-10-22T08:47:52.444Z,7.93
2022-10-22T08:50:39.599Z,11.10
2022-10-22T08:53:12.567Z,7.95
2022-10-22T08:55:39.727Z,10.43
2022-10-22T08:58:27.982Z,7.75
2022-10-22T09:01:19.934Z,9.43
2022-10-22T09:06:24.013Z,6.93
2022-10-22T09:08:51.658Z,6.60
2022-10-22T09:11:26.578Z,6.63
2022-10-22T09:13:55.090Z,10.13
2022-10-22T09:16:51.488Z,9.05
2022-10-22T09:19:45.484Z,8.52
2022-10-22T09:25:25.652Z,10.38
2022-10-22T09:27:54.300Z,9.30
2022-10-22T09:30:23.411Z,8.38
2022-10-22T09:33:09.347Z,6.90
2022-10-22T09:35:52.585Z,10.88
2022-10-22T09:38:21.501Z,8.75
2022-10-22T09:40:51.652Z,7.57
2022-10-22T09:43:19.147Z,7.13
2022-10-22T09:45:46.892Z,9.57
2022-10-22T09:48:30.442Z,9.77
2022-10-22T09:51:14.843Z,7.35
2022-10-22T09:53:47.236Z,8.32
2022-10-22T09:56:24.858Z,7.72
2022-10-22T09:58:51.832Z,8.82
2022-10-22T10:01:22.363Z,9.25
2022-10-22T10:03:49.746Z,11.30
2022-10-22T10:06:21.384Z,10.63
2022-10-22T10:08:48.399Z,9.98
2022-10-22T10:11:19.663Z,9.60
2022-10-22T10:14:20.409Z,8.07
2022-10-22T10:17:03.486Z,10.98
2022-10-22T10:19:59.963Z,7.85
2022-10-22T10:22:48.420Z,6.10
2022-10-22T10:25:33.570Z,8.90
2022-10-22T10:28:03.539Z,7.95
2022-10-22T10:30:32.436Z,9.55
2022-10-22T10:33:16.983Z,7.45
2022-10-22T10:35:56.727Z,8.25
2022-10-22T10:38:47.987Z,15.10
2022-10-22T10:41:48.775Z,8.45
2022-10-22T10:44:52.627Z,5.93
2022-10-22T10:47:31.102Z,8.88
2022-10-22T10:50:15.388Z,9.00
2022-10-22T10:53:07.540Z,9.73
2022-10-22T10:56:01.479Z,8.70
2022-10-22T10:58:53.675Z,7.05
2022-10-22T11:01:25.470Z,11.52
2022-10-22T11:04:25.659Z,7.22
2022-10-22T11:07:10.681Z,10.05
2022-10-22T11:09:46.046Z,9.90
2022-10-22T11:12:18.517Z,8.07
2022-10-22T11:15:15.566Z,6.55
2022-10-22T11:17:46.390Z,10.00
2022-10-22T11:20:18.367Z,9.23
2022-10-22T11:23:17.527Z,7.35
2022-10-22T11:25:44.437Z,12.25
2022-10-22T11:28:37.541Z,8.17
2022-10-22T11:31:10.471Z,8.25
2022-10-22T11:33:48.332Z,11.68
2022-10-22T11:36:15.762Z,12.95
2022-10-22T11:38:42.444Z,8.93
2022-10-22T11:41:15.882Z,9.95
2022-10-22T11:43:55.371Z,9.70
2022-10-22T11:46:21.761Z,10.38
2022-10-22T11:51:42.239Z,11.00
2022-10-22T11:54:37.237Z,10.57
2022-10-22T11:57:17.583Z,9.07
2022-10-22T11:59:46.993Z,9.43
2022-10-22T12:02:28.643Z,8.52
2022-10-22T12:05:15.977Z,9.38
2022-10-22T12:08:03.473Z,10.75
2022-10-22T12:10:37.023Z,8.52
2022-10-22T12:13:18.042Z,11.70
2022-10-22T12:15:51.119Z,9.30
2022-10-22T12:18:18.337Z,10.52
2022-10-22T12:20:50.808Z,11.65
2022-10-22T12:23:17.397Z,7.90
2022-10-22T12:25:44.172Z,7.22
2022-10-22T12:28:13.604Z,10.95
2022-10-22T12:30:41.273Z,9.63
2022-10-22T12:33:18.252Z,11.52
2022-10-22T12:35:46.941Z,8.65
2022-10-22T12:38:16.192Z,11.07
2022-10-22T12:40:46.041Z,7.63
2022-10-22T12:43:17.226Z,7.72
2022-10-22T12:45:45.801Z,9.50
2022-10-22T12:48:28.559Z,9.50
2022-10-22T12:50:59.540Z,10.27
2022-10-22T12:53:33.201Z,10.02
2022-10-22T12:56:02.475Z,8.25
2022-10-22T12:58:34.024Z,12.55
2022-10-22T13:01:01.987Z,10.85
2022-10-22T13:03:41.148Z,10.60
2022-10-22T13:06:19.664Z,7.30
2022-10-22T13:08:58.727Z,9.25
2022-10-22T13:11:39.764Z,7.43
2022-10-22T13:14:26.170Z,8.70
2022-10-22T13:17:16.795Z,7.60
2022-10-22T13:20:02.038Z,8.40
2022-10-22T13:22:40.146Z,8.20
2022-10-22T13:25:22.222Z,6.85
2022-10-22T13:27:56.400Z,6.82
2022-10-22T13:30:29.372Z,7.90
2022-10-22T13:32:59.121Z,9.13
2022-10-22T13:35:29.201Z,7.85
2022-10-22T13:37:55.789Z,9.65
2022-10-22T13:40:22.318Z,10.55
2022-10-22T13:42:48.835Z,7.68
2022-10-22T13:45:15.713Z,6.70
2022-10-22T13:47:44.700Z,9.40
2022-10-22T13:50:14.681Z,8.50
2022-10-22T13:52:45.588Z,10.57
2022-10-22T13:55:30.049Z,7.57
2022-10-22T13:58:06.252Z,9.38
2022-10-22T14:00:32.940Z,8.05
2022-10-22T14:03:00.096Z,11.55
2022-10-22T14:05:26.591Z,7.78
2022-10-22T14:07:53.375Z,9.07
2022-10-22T14:10:24.527Z,6.72
2022-10-22T14:12:53.714Z,8.50
2022-10-22T14:15:27.640Z,7.97
2022-10-22T14:17:57.359Z,5.18
2022-10-22T14:20:26.725Z,7.60
2022-10-22T14:22:53.806Z,6.38
2022-10-22T14:25:23.256Z,7.97
2022-10-22T14:27:50.281Z,6.82
2022-10-22T14:30:19.463Z,8.65
2022-10-22T14:32:46.280Z,6.78
2022-10-22T14:35:16.170Z,8.25
2022-10-22T14:37:42.872Z,8.75
2022-10-22T14:40:13.171Z,9.52
2022-10-22T14:42:42.958Z,8.52
2022-10-22T14:45:21.171Z,8.10
2022-10-22T14:47:48.995Z,6.85
2022-10-22T14:50:15.708Z,6.00
2022-10-22T14:52:45.376Z,8.35
2022-10-22T14:55:13.634Z,7.47
2022-10-22T14:57:41.378Z,6.43
2022-10-22T15:00:12.265Z,8.35
2022-10-22T15:02:38.925Z,6.65
2022-10-22T15:05:06.189Z,7.38
2022-10-22T15:07:32.707Z,6.88
2022-10-22T15:09:59.183Z,6.75
2022-10-22T15:12:25.635Z,9.15
2022-10-22T15:14:52.096Z,6.32
2022-10-22T15:17:18.805Z,8.07
2022-10-22T15:19:45.321Z,8.38
2022-10-22T15:22:13.342Z,8.38
2022-10-22T15:24:40.732Z,7.93
2022-10-22T15:27:07.996Z,7.45
2022-10-22T15:29:34.520Z,6.15
2022-10-22T15:32:00.977Z,11.02
2022-10-22T15:34:32.859Z,10.75
2022-10-22T15:37:01.653Z,7.15
2022-10-22T15:39:28.598Z,6.03
2022-10-22T15:41:55.723Z,8.43
2022-10-22T15:44:24.633Z,5.82
2022-10-22T15:46:52.333Z,8.38
2022-10-22T15:49:19.045Z,6.97
2022-10-22T15:51:45.534Z,10.57
2022-10-22T15:54:17.663Z,11.85
2022-10-22T15:56:45.005Z,12.35
2022-10-22T15:59:13.379Z,10.20
2022-10-22T16:01:40.739Z,9.05
2022-10-22T16:04:07.510Z,8.75
2022-10-22T16:06:40.056Z,8.48
2022-10-22T16:09:13.605Z,12.77
2022-10-22T16:11:41.003Z,9.95
2022-10-22T16:14:09.097Z,8.75
2022-10-22T16:16:36.982Z,9.73
2022-10-22T16:19:03.522Z,8.07
2022-10-22T16:21:30.114Z,6.72
2022-10-22T16:23:56.653Z,7.30
2022-10-22T16:26:23.097Z,8.60
2022-10-22T16:28:49.599Z,6.75
2022-10-22T16:31:18.011Z,6.82
2022-10-22T16:33:47.771Z,10.32
2022-10-22T16:36:19.416Z,13.00
2022-10-22T16:38:46.607Z,11.02
2022-10-22T16:41:21.415Z,11.15
2022-10-22T16:43:49.628Z,10.77
2022-10-22T16:46:18.187Z,9.13
2022-10-22T16:48:48.787Z,9.15
2022-10-22T16:51:17.285Z,9.35
2022-10-22T16:53:44.126Z,8.77
2022-10-22T16:56:12.330Z,8.63
2022-10-22T16:58:39.441Z,10.20
2022-10-22T17:01:10.377Z,10.73
2022-10-22T17:03:37.561Z,15.98
2022-10-22T17:06:05.168Z,9.82
2022-10-22T17:08:34.537Z,12.13
2022-10-22T17:11:19.104Z,9.55
2022-10-22T17:13:53.220Z,10.18
2022-10-22T17:16:23.314Z,11.55
2022-10-22T17:18:49.855Z,8.50
2022-10-22T17:21:17.230Z,10.88
2022-10-22T17:23:43.850Z,12.73
2022-10-22T17:26:19.486Z,13.15
2022-10-22T17:28:46.416Z,9.43
2022-10-22T17:31:21.913Z,13.02
2022-10-22T17:33:49.968Z,12.70
2022-10-22T17:36:18.130Z,10.85
2022-10-22T17:38:48.683Z,12.00
2022-10-22T17:41:18.321Z,10.20
2022-10-22T17:46:21.726Z,21.35
2022-10-22T17:48:56.644Z,14.35
2022-10-22T17:51:24.783Z,12.77
2022-10-22T17:53:51.555Z,13.30
2022-10-22T17:56:23.783Z,16.65
2022-10-22T17:58:50.987Z,12.02
2022-10-22T18:01:20.962Z,12.80
2022-10-22T18:03:47.813Z,14.07
2022-10-22T18:06:14.833Z,13.85
2022-10-22T18:08:41.390Z,15.68
2022-10-22T18:11:13.756Z,17.48
2022-10-22T18:13:40.309Z,16.58
2022-10-22T18:16:06.854Z,17.08
2022-10-22T18:18:34.957Z,15.05
2022-10-22T18:21:02.344Z,20.05
2022-10-22T18:23:28.836Z,20.15
2022-10-22T18:25:55.307Z,15.48
2022-10-22T18:28:21.867Z,21.52
2022-10-22T18:30:48.573Z,18.70
2022-10-22T18:33:17.662Z,16.65
2022-10-22T18:35:46.474Z,15.10
2022-10-22T18:38:12.990Z,21.45
2022-10-22T18:40:48.661Z,15.07
2022-10-22T18:43:15.965Z,12.40
2022-10-22T18:45:47.652Z,17.38
2022-10-22T18:50:42.203Z,16.30
2022-10-22T18:53:09.464Z,15.55
2022-10-22T18:55:39.400Z,15.43
2022-10-22T18:58:06.087Z,17.83
2022-10-22T19:00:34.967Z,17.27
2022-10-22T19:03:03.095Z,15.25
2022-10-22T19:05:29.640Z,16.80
2022-10-22T19:07:56.115Z,16.05
2022-10-22T19:10:22.575Z,19.67
2022-10-22T19:12:49.046Z,14.80
2022-10-22T19:15:16.055Z,17.33
2022-10-22T19:17:42.778Z,17.40
2022-10-22T19:20:09.928Z,15.98
2022-10-22T19:22:36.387Z,17.67
2022-10-22T19:25:03.631Z,16.13
2022-10-22T19:27:31.591Z,17.67
2022-10-22T19:29:58.051Z,20.98
2022-10-22T19:32:27.453Z,14.90
2022-10-22T19:34:56.796Z,15.60
2022-10-22T19:37:23.243Z,16.30
2022-10-22T19:39:50.033Z,13.00
2022-10-22T19:42:16.567Z,17.48
2022-10-22T19:44:43.060Z,13.63
2022-10-22T19:47:09.664Z,13.73
2022-10-22T19:49:36.149Z,14.48
2022-10-22T19:52:02.687Z,15.73
2022-10-22T19:54:29.432Z,16.65
2022-10-22T19:56:55.925Z,18.92
2022-10-22T19:59:26.206Z,17.13
2022-10-22T20:01:55.113Z,14.55
2022-10-22T20:04:25.024Z,15.13
2022-10-22T20:06:51.991Z,21.20
2022-10-22T20:09:18.508Z,14.10
2022-10-22T20:11:45.391Z,13.25
2022-10-22T20:14:12.909Z,18.65
2022-10-22T20:16:39.384Z,15.88
2022-10-22T20:19:07.754Z,11.48
2022-10-22T20:21:34.808Z,11.98
2022-10-22T20:24:01.287Z,18.05
2022-10-22T20:26:28.541Z,10.70
2022-10-22T20:28:55.885Z,10.45
2022-10-22T20:31:24.947Z,13.32
2022-10-22T20:33:51.483Z,11.35
2022-10-22T20:36:20.568Z,15.07
2022-10-22T20:38:48.165Z,9.00
2022-10-22T20:41:22.819Z,11.70
2022-10-22T20:43:51.046Z,12.20
2022-10-22T20:46:23.139Z,9.45
2022-10-22T20:48:52.492Z,9.93
2022-10-22T20:51:18.955Z,12.18
2022-10-22T20:53:45.460Z,16.65
2022-10-22T20:56:12.867Z,11.73
2022-10-22T20:58:39.808Z,12.20
2022-10-22T21:01:10.600Z,9.45
2022-10-22T21:03:37.729Z,9.50
2022-10-22T21:06:05.518Z,11.65
2022-10-22T21:08:32.652Z,9.40
2022-10-22T21:10:59.170Z,11.48
2022-10-22T21:13:25.614Z,11.40
2022-10-22T21:15:52.094Z,13.73
2022-10-22T21:18:18.539Z,12.38
2022-10-22T21:20:45.001Z,12.75
2022-10-22T21:23:11.472Z,13.63
2022-10-22T21:25:40.833Z,12.13
2022-10-22T21:28:09.784Z,11.75
2022-10-22T21:30:36.376Z,13.90
2022-10-22T21:33:02.855Z,13.07
2022-10-22T21:35:29.417Z,11.65
2022-10-22T21:37:55.863Z,16.63
2022-10-22T21:40:22.366Z,13.82
2022-10-22T21:42:49.831Z,13.68
2022-10-22T21:45:19.904Z,11.20
2022-10-22T21:47:47.940Z,12.45
2022-10-22T21:50:14.404Z,14.07
2022-10-22T21:52:40.960Z,11.20
2022-10-22T21:55:07.760Z,11.25
2022-10-22T21:57:34.263Z,13.60
2022-10-22T22:00:00.712Z,11.07
2022-10-22T22:02:28.561Z,12.02
2022-10-22T22:04:55.031Z,14.68
2022-10-22T22:07:22.113Z,13.85
2022-10-22T22:09:51.777Z,13.85
2022-10-22T22:12:18.913Z,14.98
2022-10-22T22:14:45.362Z,15.93
2022-10-22T22:17:11.972Z,15.15
2022-10-22T22:19:38.942Z,14.63
2022-10-22T22:22:05.505Z,15.45
2022-10-22T22:24:31.959Z,14.95
2022-10-22T22:26:58.474Z,16.10
2022-10-22T22:29:24.954Z,18.58
2022-10-22T22:31:51.493Z,15.50
2022-10-22T22:34:17.988Z,21.48
2022-10-22T22:36:46.861Z,19.30
2022-10-22T22:39:18.771Z,20.48
2022-10-22T22:41:45.642Z,20.52
2022-10-22T22:44:12.531Z,20.73
2022-10-22T22:46:39.832Z,23.52
2022-10-22T22:49:06.725Z,21.58
2022-10-22T22:51:33.629Z,25.30
2022-10-22T22:54:00.836Z,21.33
2022-10-22T22:56:32.468Z,19.52
2022-10-22T22:58:59.005Z,21.92
2022-10-22T23:01:37.162Z,19.63
2022-10-22T23:04:12.183Z,18.33
2022-10-22T23:06:39.829Z,19.35
2022-10-22T23:09:08.803Z,18.13
2022-10-22T23:11:35.929Z,18.92
2022-10-22T23:14:04.798Z,16.67
2022-10-22T23:16:33.739Z,13.98
2022-10-22T23:19:00.916Z,15.80
2022-10-22T23:21:33.375Z,14.15
2022-10-22T23:24:02.910Z,11.68
2022-10-22T23:26:33.025Z,13.85
2022-10-22T23:29:01.528Z,12.60
2022-10-22T23:31:27.987Z,13.35
2022-10-22T23:33:54.496Z,11.50
2022-10-22T23:36:21.006Z,15.90
2022-10-22T23:38:47.636Z,13.20
2022-10-22T23:41:14.090Z,13.48
2022-10-22T23:43:40.544Z,14.85
2022-10-22T23:46:09.512Z,15.50
2022-10-22T23:48:37.099Z,14.80
2022-10-22T23:51:05.981Z,13.52
2022-10-22T23:53:32.465Z,11.02
2022-10-22T23:56:04.118Z,10.90
2022-10-22T23:58:30.641Z,11.75
